createdAt,value
2024-05-09T00:00:31.568Z,12.59
2024-05-09T00:01:27.010Z,12.59
2024-05-09T00:02:26.956Z,12.59
2024-05-09T00:03:26.949Z,12.58
2024-05-09T00:04:26.904Z,12.58
2024-05-09T00:05:26.925Z,12.59
2024-05-09T00:06:26.899Z,12.56
2024-05-09T00:07:26.881Z,12.56
2024-05-09T00:08:26.999Z,12.58
2024-05-09T00:09:26.837Z,12.56
2024-05-09T00:10:35.211Z,12.54
2024-05-09T00:11:26.906Z,12.55
2024-05-09T00:12:26.882Z,12.54
2024-05-09T00:13:26.843Z,12.54
2024-05-09T00:14:26.919Z,12.51
2024-05-09T00:15:26.784Z,12.52
2024-05-09T00:16:26.781Z,12.49
2024-05-09T00:17:26.950Z,12.51
2024-05-09T00:18:26.927Z,12.46
2024-05-09T00:19:26.842Z,12.46
2024-05-09T00:20:35.107Z,12.48
2024-05-09T00:21:26.714Z,12.44
2024-05-09T00:22:26.724Z,12.43
2024-05-09T00:23:26.832Z,12.44
2024-05-09T00:24:26.731Z,12.44
2024-05-09T00:25:26.685Z,12.43
2024-05-09T00:26:26.702Z,12.43
2024-05-09T00:27:26.640Z,12.40
2024-05-09T00:28:26.667Z,12.41
2024-05-09T00:29:26.765Z,12.41
2024-05-09T00:30:33.573Z,12.40
2024-05-09T00:31:26.632Z,12.38
2024-05-09T00:32:26.870Z,12.38
2024-05-09T00:33:26.847Z,12.41
2024-05-09T00:34:26.892Z,12.37
2024-05-09T00:35:26.664Z,12.37
2024-05-09T00:36:26.592Z,12.37
2024-05-09T00:37:26.528Z,12.38
2024-05-09T00:38:26.649Z,12.36
2024-05-09T00:39:26.524Z,12.38
2024-05-09T00:40:35.606Z,12.38
2024-05-09T00:41:26.622Z,12.37
2024-05-09T00:42:26.517Z,12.37
2024-05-09T00:43:26.541Z,12.34
2024-05-09T00:44:26.569Z,12.31
2024-05-09T00:45:26.446Z,12.33
2024-05-09T00:46:26.451Z,12.33
2024-05-09T00:47:26.762Z,12.31
2024-05-09T00:48:26.899Z,12.31
2024-05-09T00:49:26.665Z,12.29
2024-05-09T00:50:35.273Z,12.29
2024-05-09T00:51:26.418Z,12.30
2024-05-09T00:52:26.420Z,12.26
2024-05-09T00:53:26.399Z,12.26
2024-05-09T00:54:26.369Z,12.25
2024-05-09T00:55:26.355Z,12.25
2024-05-09T00:56:26.401Z,12.25
2024-05-09T00:57:26.321Z,12.23
2024-05-09T00:58:26.352Z,12.23
2024-05-09T00:59:26.542Z,12.23
2024-05-09T01:00:32.074Z,12.22
2024-05-09T01:01:26.383Z,12.22
2024-05-09T01:02:26.393Z,12.21
2024-05-09T01:03:26.523Z,12.19
2024-05-09T01:04:26.369Z,12.19
2024-05-09T01:05:26.259Z,12.19
2024-05-09T01:06:26.216Z,12.16
2024-05-09T01:07:26.276Z,12.16
2024-05-09T01:08:26.270Z,12.16
2024-05-09T01:09:26.205Z,12.18
2024-05-09T01:10:33.584Z,12.18
2024-05-09T01:11:26.358Z,12.18
2024-05-09T01:12:26.225Z,12.15
2024-05-09T01:13:26.149Z,12.12
2024-05-09T01:14:26.221Z,12.13
2024-05-09T01:15:26.167Z,12.12
2024-05-09T01:16:26.146Z,12.11
2024-05-09T01:17:26.272Z,12.08
2024-05-09T01:18:26.233Z,12.11
2024-05-09T01:19:26.450Z,12.11
2024-05-09T01:20:37.206Z,12.08
2024-05-09T01:21:26.114Z,12.11
2024-05-09T01:22:26.056Z,12.11
2024-05-09T01:23:26.174Z,12.08
2024-05-09T01:24:26.020Z,12.07
2024-05-09T01:25:26.026Z,12.08
2024-05-09T01:26:26.083Z,12.07
2024-05-09T01:27:26.027Z,12.05
2024-05-09T01:28:26.013Z,12.03
2024-05-09T01:29:26.080Z,12.04
2024-05-09T01:30:33.011Z,12.05
2024-05-09T01:31:25.978Z,12.04
2024-05-09T01:32:26.051Z,12.01
2024-05-09T01:33:26.266Z,12.03
2024-05-09T01:34:25.937Z,12.00
2024-05-09T01:35:25.952Z,11.98
2024-05-09T01:36:25.920Z,11.98
2024-05-09T01:37:25.890Z,11.98
2024-05-09T01:38:26.025Z,11.97
2024-05-09T01:39:25.893Z,11.97
2024-05-09T01:40:36.128Z,11.94
2024-05-09T01:41:25.956Z,11.96
2024-05-09T01:42:25.858Z,11.94
2024-05-09T01:43:25.825Z,11.94
2024-05-09T01:44:25.942Z,11.96
2024-05-09T01:45:25.812Z,11.94
2024-05-09T01:46:25.853Z,11.93
2024-05-09T01:47:26.080Z,11.93
2024-05-09T01:48:25.916Z,11.93
2024-05-09T01:49:25.944Z,11.90
2024-05-09T01:50:37.054Z,11.90
2024-05-09T01:51:25.765Z,11.87
2024-05-09T01:52:25.779Z,11.88
2024-05-09T01:53:25.768Z,11.87
2024-05-09T01:54:25.707Z,11.84
2024-05-09T01:55:25.695Z,11.84
2024-05-09T01:56:25.760Z,11.84
2024-05-09T01:57:25.781Z,11.82
2024-05-09T01:58:25.721Z,11.82
2024-05-09T01:59:25.775Z,11.81
2024-05-09T02:00:34.192Z,11.81
2024-05-09T02:01:25.741Z,11.81
2024-05-09T02:02:25.742Z,11.79
2024-05-09T02:03:25.712Z,11.78
2024-05-09T02:04:25.881Z,11.78
2024-05-09T02:05:25.692Z,11.77
2024-05-09T02:06:25.589Z,11.77
2024-05-09T02:07:25.596Z,11.75
2024-05-09T02:08:25.640Z,11.75
2024-05-09T02:09:25.567Z,11.75
2024-05-09T02:10:32.064Z,11.74
2024-05-09T02:11:25.640Z,11.74
2024-05-09T02:12:25.677Z,11.72
2024-05-09T02:13:25.544Z,11.74
2024-05-09T02:14:25.598Z,11.72
2024-05-09T02:15:25.554Z,11.72
2024-05-09T02:16:25.480Z,11.70
2024-05-09T02:17:25.665Z,11.70
2024-05-09T02:18:25.713Z,11.69
2024-05-09T02:19:25.569Z,11.70
2024-05-09T02:20:33.839Z,11.67
2024-05-09T02:21:25.465Z,11.67
2024-05-09T02:22:25.432Z,11.67
2024-05-09T02:23:25.435Z,11.69
2024-05-09T02:24:25.447Z,11.64
2024-05-09T02:25:25.396Z,11.64
2024-05-09T02:26:25.425Z,11.66
2024-05-09T02:27:25.406Z,11.62
2024-05-09T02:28:25.393Z,11.63
2024-05-09T02:29:25.451Z,11.62
2024-05-09T02:30:35.344Z,11.62
2024-05-09T02:31:25.325Z,11.63
2024-05-09T02:32:25.496Z,11.60
2024-05-09T02:33:25.556Z,11.60
2024-05-09T02:34:25.413Z,11.57
2024-05-09T02:35:25.475Z,11.57
2024-05-09T02:36:25.263Z,11.57
2024-05-09T02:37:25.296Z,11.57
2024-05-09T02:38:25.388Z,11.54
2024-05-09T02:39:25.227Z,11.56
2024-05-09T02:40:33.535Z,11.53
2024-05-09T02:41:25.339Z,11.54
2024-05-09T02:42:25.212Z,11.54
2024-05-09T02:43:25.208Z,11.53
2024-05-09T02:44:25.318Z,11.51
2024-05-09T02:45:25.175Z,11.53
2024-05-09T02:46:25.241Z,11.49
2024-05-09T02:47:25.323Z,11.49
2024-05-09T02:48:25.270Z,11.51
2024-05-09T02:49:25.281Z,11.49
2024-05-09T02:50:33.591Z,11.49
2024-05-09T02:51:25.102Z,11.49
2024-05-09T02:52:25.109Z,11.49
2024-05-09T02:53:25.159Z,11.49
2024-05-09T02:54:25.076Z,11.48
2024-05-09T02:55:25.072Z,11.48
2024-05-09T02:56:25.218Z,11.46
2024-05-09T02:57:25.084Z,11.45
2024-05-09T02:58:25.086Z,11.46
2024-05-09T02:59:25.229Z,11.45
2024-05-09T03:00:34.282Z,11.45
2024-05-09T03:01:25.072Z,11.44
2024-05-09T03:02:25.077Z,11.44
2024-05-09T03:03:25.147Z,11.42
2024-05-09T03:04:25.095Z,11.44
2024-05-09T03:05:24.999Z,11.42
2024-05-09T03:06:24.950Z,11.42
2024-05-09T03:07:24.953Z,11.41
2024-05-09T03:08:25.005Z,11.42
2024-05-09T03:09:24.907Z,11.41
2024-05-09T03:10:28.642Z,11.41
2024-05-09T03:11:25.046Z,11.39
2024-05-09T03:12:24.952Z,11.39
2024-05-09T03:13:24.936Z,11.38
2024-05-09T03:14:25.078Z,11.38
2024-05-09T03:15:24.855Z,11.39
2024-05-09T03:16:24.834Z,11.36
2024-05-09T03:17:25.062Z,11.38
2024-05-09T03:18:24.963Z,11.36
2024-05-09T03:19:24.935Z,11.35
2024-05-09T03:20:32.398Z,11.35
2024-05-09T03:21:24.854Z,11.33
2024-05-09T03:22:24.785Z,11.33
2024-05-09T03:23:24.878Z,11.33
2024-05-09T03:24:24.801Z,11.31
2024-05-09T03:25:24.783Z,11.30
2024-05-09T03:26:24.865Z,11.30
2024-05-09T03:27:24.763Z,11.30
2024-05-09T03:28:24.802Z,11.30
2024-05-09T03:29:24.826Z,11.28
2024-05-09T03:30:31.205Z,11.28
2024-05-09T03:31:24.700Z,11.24
2024-05-09T03:32:24.764Z,11.26
2024-05-09T03:33:24.938Z,11.26
2024-05-09T03:34:24.731Z,11.26
2024-05-09T03:35:24.798Z,11.27
2024-05-09T03:36:24.678Z,11.26
2024-05-09T03:37:24.665Z,11.24
2024-05-09T03:38:24.574Z,11.23
2024-05-09T03:39:24.657Z,11.21
2024-05-09T03:40:28.934Z,11.23
2024-05-09T03:41:24.583Z,11.23
2024-05-09T03:42:24.502Z,11.24
2024-05-09T03:43:24.592Z,11.23
2024-05-09T03:44:24.501Z,11.21
2024-05-09T03:45:24.508Z,11.21
2024-05-09T03:46:24.534Z,11.21
2024-05-09T03:47:24.664Z,11.20
2024-05-09T03:48:24.715Z,11.19
2024-05-09T03:49:24.837Z,11.19
2024-05-09T03:50:30.187Z,11.17
2024-05-09T03:51:24.536Z,11.13
2024-05-09T03:52:24.447Z,11.13
2024-05-09T03:53:24.454Z,11.13
2024-05-09T03:54:24.467Z,11.16
2024-05-09T03:55:24.407Z,11.11
2024-05-09T03:56:24.453Z,11.11
2024-05-09T03:57:24.393Z,11.09
2024-05-09T03:58:24.344Z,11.11
2024-05-09T03:59:24.446Z,11.09
2024-05-09T04:00:31.392Z,11.08
2024-05-09T04:01:24.350Z,11.08
2024-05-09T04:02:24.486Z,11.06
2024-05-09T04:03:24.731Z,11.08
2024-05-09T04:04:24.432Z,11.06
2024-05-09T04:05:24.349Z,11.03
2024-05-09T04:06:24.272Z,11.03
2024-05-09T04:07:24.259Z,11.05
2024-05-09T04:08:24.338Z,11.03
2024-05-09T04:09:24.276Z,11.05
2024-05-09T04:10:31.193Z,11.02
2024-05-09T04:11:24.348Z,11.02
2024-05-09T04:12:24.374Z,11.02
2024-05-09T04:13:24.197Z,11.02
2024-05-09T04:14:24.239Z,11.01
2024-05-09T04:15:24.199Z,10.99
2024-05-09T04:16:24.205Z,10.99
2024-05-09T04:17:24.282Z,10.98
2024-05-09T04:18:24.282Z,10.98
2024-05-09T04:19:24.453Z,10.95
2024-05-09T04:20:33.585Z,10.95
2024-05-09T04:21:24.160Z,10.95
2024-05-09T04:22:24.102Z,10.94
2024-05-09T04:23:24.148Z,10.95
2024-05-09T04:24:24.081Z,10.98
2024-05-09T04:25:24.112Z,10.94
2024-05-09T04:26:24.101Z,10.94
2024-05-09T04:27:24.077Z,10.95
2024-05-09T04:28:24.150Z,10.94
2024-05-09T04:29:24.201Z,10.98
2024-05-09T04:30:34.326Z,10.95
2024-05-09T04:31:24.062Z,10.98
2024-05-09T04:32:24.209Z,10.95
2024-05-09T04:33:24.299Z,10.98
2024-05-09T04:34:24.077Z,10.95
2024-05-09T04:35:24.112Z,10.98
2024-05-09T04:36:23.984Z,10.95
2024-05-09T04:37:23.962Z,10.95
2024-05-09T04:38:23.984Z,10.94
2024-05-09T04:39:23.943Z,10.99
2024-05-09T04:40:31.369Z,10.95
2024-05-09T04:41:23.986Z,10.98
2024-05-09T04:42:23.881Z,10.95
2024-05-09T04:43:23.907Z,10.95
2024-05-09T04:44:23.955Z,10.98
2024-05-09T04:45:23.909Z,10.95
2024-05-09T04:46:23.923Z,10.98
2024-05-09T04:47:23.931Z,10.98
2024-05-09T04:48:23.994Z,10.99
2024-05-09T04:49:24.139Z,10.98
2024-05-09T04:50:33.198Z,10.99
2024-05-09T04:51:23.847Z,10.99
2024-05-09T04:52:23.785Z,11.01
2024-05-09T04:53:23.853Z,11.02
2024-05-09T04:54:33.654Z,11.02
2024-05-09T04:55:23.770Z,11.02
2024-05-09T04:56:23.802Z,11.05
2024-05-09T04:57:23.727Z,11.03
2024-05-09T04:58:23.738Z,11.05
2024-05-09T04:59:23.830Z,11.05
2024-05-09T05:00:32.437Z,11.08
2024-05-09T05:01:23.728Z,11.06
2024-05-09T05:02:23.757Z,11.06
2024-05-09T05:03:23.932Z,11.09
2024-05-09T05:04:23.672Z,11.09
2024-05-09T05:05:23.762Z,11.09
2024-05-09T05:06:23.656Z,11.11
2024-05-09T05:07:23.663Z,11.12
2024-05-09T05:08:23.710Z,11.12
2024-05-09T05:09:23.644Z,11.12
2024-05-09T05:10:32.928Z,11.16
2024-05-09T05:11:23.769Z,11.16
2024-05-09T05:12:23.768Z,11.16
2024-05-09T05:13:24.363Z,11.16
2024-05-09T05:14:23.663Z,11.20
2024-05-09T05:15:23.527Z,11.19
2024-05-09T05:16:23.579Z,11.21
2024-05-09T05:17:23.611Z,11.23
2024-05-09T05:18:23.593Z,11.23
2024-05-09T05:19:23.550Z,11.26
2024-05-09T05:20:30.937Z,11.26
2024-05-09T05:21:23.551Z,11.26
2024-05-09T05:22:23.477Z,11.28
2024-05-09T05:23:23.964Z,11.28
2024-05-09T05:24:23.469Z,11.33
2024-05-09T05:25:23.447Z,11.33
2024-05-09T05:26:23.502Z,11.31
2024-05-09T05:27:23.406Z,11.33
2024-05-09T05:28:23.613Z,11.35
2024-05-09T05:29:23.561Z,11.38
2024-05-09T05:30:29.010Z,11.39
2024-05-09T05:31:23.509Z,11.38
2024-05-09T05:32:23.574Z,11.41
2024-05-09T05:33:23.742Z,11.42
2024-05-09T05:34:23.349Z,11.44
2024-05-09T05:35:23.461Z,11.46
2024-05-09T05:36:23.319Z,11.45
2024-05-09T05:37:23.378Z,11.48
2024-05-09T05:38:27.260Z,11.49
2024-05-09T05:39:23.305Z,11.53
2024-05-09T05:40:32.196Z,11.53
2024-05-09T05:41:23.371Z,11.54
2024-05-09T05:42:23.247Z,11.57
2024-05-09T05:43:23.318Z,11.57
2024-05-09T05:44:23.258Z,11.59
2024-05-09T05:45:23.224Z,11.60
2024-05-09T05:46:23.235Z,11.60
2024-05-09T05:47:23.285Z,11.62
2024-05-09T05:48:23.489Z,11.63
2024-05-09T05:49:23.395Z,11.66
2024-05-09T05:50:28.068Z,11.67
2024-05-09T05:51:23.294Z,11.69
2024-05-09T05:52:23.185Z,11.69
2024-05-09T05:53:23.240Z,11.72
2024-05-09T05:54:23.137Z,11.74
2024-05-09T05:55:23.149Z,11.74
2024-05-09T05:56:23.138Z,11.75
2024-05-09T05:57:23.168Z,11.77
2024-05-09T05:58:23.104Z,11.77
2024-05-09T05:59:23.176Z,11.79
2024-05-09T06:00:29.851Z,11.79
2024-05-09T06:01:23.124Z,11.81
2024-05-09T06:02:23.151Z,11.82
2024-05-09T06:04:23.176Z,11.84
2024-05-09T06:05:29.283Z,11.84
2024-05-09T06:06:23.082Z,11.87
2024-05-09T06:07:23.031Z,11.87
2024-05-09T06:08:23.760Z,11.90
2024-05-09T06:09:23.060Z,11.88
2024-05-09T06:10:29.627Z,11.93
2024-05-09T06:11:23.117Z,11.94
2024-05-09T06:12:23.096Z,11.96
2024-05-09T06:13:22.973Z,11.96
2024-05-09T06:14:23.090Z,11.98
2024-05-09T06:15:22.934Z,12.00
2024-05-09T06:16:22.931Z,12.00
2024-05-09T06:17:23.105Z,12.01
2024-05-09T06:18:23.217Z,12.03
2024-05-09T06:19:22.981Z,12.05
2024-05-09T06:20:31.765Z,12.07
2024-05-09T06:21:22.900Z,12.08
2024-05-09T06:22:22.860Z,12.12
2024-05-09T06:23:22.920Z,12.11
2024-05-09T06:24:22.839Z,12.12
2024-05-09T06:25:22.798Z,12.13
2024-05-09T06:26:22.896Z,12.15
2024-05-09T06:27:22.790Z,12.13
2024-05-09T06:28:22.772Z,12.18
2024-05-09T06:29:22.865Z,12.19
2024-05-09T06:30:30.108Z,12.18
2024-05-09T06:31:22.744Z,12.18
2024-05-09T06:32:23.128Z,12.19
2024-05-09T06:33:22.916Z,12.22
2024-05-09T06:34:23.037Z,12.21
2024-05-09T06:35:22.781Z,12.22
2024-05-09T06:36:22.704Z,12.23
2024-05-09T06:37:22.700Z,12.25
2024-05-09T06:38:22.724Z,12.25
2024-05-09T06:39:22.668Z,12.29
2024-05-09T06:40:25.933Z,12.29
2024-05-09T06:41:22.729Z,12.30
2024-05-09T06:42:22.642Z,12.31
2024-05-09T06:43:22.640Z,12.30
2024-05-09T06:44:22.730Z,12.34
2024-05-09T06:45:22.618Z,12.33
2024-05-09T06:46:22.579Z,12.36
2024-05-09T06:47:22.727Z,12.33
2024-05-09T06:48:23.065Z,12.37
2024-05-09T06:49:22.707Z,12.37
2024-05-09T06:50:24.503Z,12.37
2024-05-09T06:51:22.553Z,12.38
2024-05-09T06:52:22.530Z,12.40
2024-05-09T06:53:22.641Z,12.40
2024-05-09T06:54:22.513Z,12.41
2024-05-09T06:55:22.526Z,12.43
2024-05-09T06:56:22.552Z,12.43
2024-05-09T06:57:22.456Z,12.46
2024-05-09T06:58:22.480Z,12.48
2024-05-09T06:59:22.726Z,12.49
2024-05-09T07:00:30.853Z,12.51
2024-05-09T07:01:22.622Z,12.49
2024-05-09T07:02:22.602Z,12.52
2024-05-09T07:03:22.557Z,12.54
2024-05-09T07:04:22.510Z,12.56
2024-05-09T07:05:22.554Z,12.58
2024-05-09T07:06:22.394Z,12.55
2024-05-09T07:07:22.409Z,12.56
2024-05-09T07:08:22.489Z,12.59
2024-05-09T07:09:22.391Z,12.61
2024-05-09T07:10:28.881Z,12.59
2024-05-09T07:11:22.505Z,12.61
2024-05-09T07:12:22.418Z,12.62
2024-05-09T07:13:22.336Z,12.63
2024-05-09T07:14:22.435Z,12.63
2024-05-09T07:15:22.303Z,12.66
2024-05-09T07:16:22.260Z,12.67
2024-05-09T07:17:22.357Z,12.69
2024-05-09T07:18:22.515Z,12.70
2024-05-09T07:19:22.318Z,12.70
2024-05-09T07:20:31.697Z,12.70
2024-05-09T07:21:22.265Z,12.73
2024-05-09T07:22:22.203Z,12.71
2024-05-09T07:23:22.295Z,12.74
2024-05-09T07:24:22.251Z,12.76
2024-05-09T07:25:22.164Z,12.76
2024-05-09T07:26:22.206Z,12.77
2024-05-09T07:27:22.138Z,12.79
2024-05-09T07:28:22.139Z,12.80
2024-05-09T07:29:22.172Z,12.84
2024-05-09T07:30:27.609Z,12.84
2024-05-09T07:31:22.108Z,12.84
2024-05-09T07:32:22.250Z,12.84
2024-05-09T07:33:23.694Z,12.88
2024-05-09T07:34:22.328Z,12.88
2024-05-09T07:35:22.102Z,12.87
2024-05-09T07:36:22.060Z,12.89
2024-05-09T07:37:22.036Z,12.91
2024-05-09T07:38:22.128Z,12.91
2024-05-09T07:39:22.046Z,12.94
2024-05-09T07:40:31.615Z,12.92
2024-05-09T07:41:22.105Z,12.94
2024-05-09T07:42:21.988Z,12.99
2024-05-09T07:43:21.982Z,12.99
2024-05-09T07:44:22.014Z,13.04
2024-05-09T07:45:40.624Z,13.03
2024-05-09T07:48:56.523Z,13.06
2024-05-09T07:52:22.646Z,13.06
2024-05-09T07:53:42.111Z,13.09
2024-05-09T07:53:53.419Z,13.13
2024-05-09T07:54:45.195Z,13.16
2024-05-09T07:55:45.090Z,13.17
2024-05-09T07:56:45.031Z,13.19
2024-05-09T07:57:44.956Z,13.21
2024-05-09T07:58:44.903Z,13.22
2024-05-09T07:59:44.888Z,13.25
2024-05-09T08:00:45.102Z,13.22
2024-05-09T08:01:45.074Z,13.27
2024-05-09T08:02:44.917Z,13.28
2024-05-09T08:03:45.060Z,13.28
2024-05-09T08:04:44.911Z,13.28
2024-05-09T08:05:44.871Z,13.31
2024-05-09T08:06:44.866Z,13.35
2024-05-09T08:07:44.791Z,13.35
2024-05-09T08:08:44.816Z,13.35
2024-05-09T08:09:44.834Z,13.36
2024-05-09T08:10:44.886Z,13.39
2024-05-09T08:11:44.863Z,13.41
2024-05-09T08:12:44.769Z,13.41
2024-05-09T08:13:44.756Z,13.41
2024-05-09T08:14:44.709Z,13.43
2024-05-09T08:15:44.863Z,13.47
2024-05-09T08:16:44.695Z,13.47
2024-05-09T08:17:44.878Z,13.46
2024-05-09T08:18:44.809Z,13.48
2024-05-09T08:19:44.731Z,13.53
2024-05-09T08:20:44.678Z,13.51
2024-05-09T08:21:44.712Z,13.54
2024-05-09T08:22:44.670Z,13.54
2024-05-09T08:23:44.636Z,13.59
2024-05-09T08:24:44.717Z,13.59
2024-05-09T08:25:44.635Z,13.61
2024-05-09T08:26:44.583Z,13.61
2024-05-09T08:27:44.617Z,13.63
2024-05-09T08:28:44.571Z,13.65
2024-05-09T08:29:44.674Z,13.65
2024-05-09T08:30:44.836Z,13.66
2024-05-09T08:31:44.719Z,13.63
2024-05-09T08:32:44.689Z,13.66
2024-05-09T08:33:44.755Z,13.71
2024-05-09T08:34:44.682Z,13.69
2024-05-09T08:35:44.488Z,13.71
2024-05-09T08:36:44.607Z,13.71
2024-05-09T08:37:44.536Z,13.73
2024-05-09T08:38:44.467Z,13.72
2024-05-09T08:39:44.502Z,13.73
2024-05-09T08:40:44.692Z,13.76
2024-05-09T08:41:44.409Z,13.75
2024-05-09T08:42:44.476Z,13.76
2024-05-09T08:43:44.423Z,13.76
2024-05-09T08:44:44.387Z,13.79
2024-05-09T08:45:45.441Z,13.80
2024-05-09T08:46:44.410Z,13.80
2024-05-09T08:47:44.440Z,13.80
2024-05-09T08:48:44.603Z,13.81
2024-05-09T08:49:44.378Z,13.83
2024-05-09T08:50:45.506Z,13.81
2024-05-09T08:51:44.379Z,13.83
2024-05-09T08:52:44.329Z,13.87
2024-05-09T08:53:44.332Z,13.88
2024-05-09T08:54:44.387Z,13.90
2024-05-09T08:55:44.749Z,13.90
2024-05-09T08:56:44.275Z,13.94
2024-05-09T08:57:44.276Z,13.94
2024-05-09T08:58:44.266Z,13.99
2024-05-09T08:59:44.266Z,14.01
2024-05-09T09:00:45.004Z,14.01
2024-05-09T09:01:44.425Z,14.05
2024-05-09T09:02:44.601Z,14.06
2024-05-09T09:03:44.382Z,14.06
2024-05-09T09:04:44.338Z,14.11
2024-05-09T09:05:44.268Z,14.12
2024-05-09T09:06:44.448Z,14.13
2024-05-09T09:07:44.162Z,14.17
2024-05-09T09:08:44.179Z,14.20
2024-05-09T09:09:44.349Z,14.23
2024-05-09T09:10:44.240Z,14.24
2024-05-09T09:11:44.168Z,14.27
2024-05-09T09:12:44.239Z,14.31
2024-05-09T09:13:44.079Z,14.31
2024-05-09T09:14:44.079Z,14.34
2024-05-09T09:15:44.169Z,14.36
2024-05-09T09:16:44.065Z,14.41
2024-05-09T09:17:44.174Z,14.48
2024-05-09T09:18:44.321Z,14.49
2024-05-09T09:19:44.097Z,14.54
2024-05-09T09:20:44.159Z,14.53
2024-05-09T09:21:44.117Z,14.57
2024-05-09T09:22:43.985Z,14.59
2024-05-09T09:23:43.971Z,14.60
2024-05-09T09:24:44.037Z,14.61
2024-05-09T09:25:43.957Z,14.63
2024-05-09T09:26:43.963Z,14.63
2024-05-09T09:27:43.988Z,14.69
2024-05-09T09:28:43.914Z,14.71
2024-05-09T09:29:43.918Z,14.75
2024-05-09T09:30:44.046Z,14.80
2024-05-09T09:31:43.910Z,14.83
2024-05-09T09:32:43.996Z,14.86
2024-05-09T09:33:44.182Z,14.86
2024-05-09T09:34:43.967Z,14.90
2024-05-09T09:35:43.861Z,14.91
2024-05-09T09:36:43.940Z,14.94
2024-05-09T09:37:43.841Z,14.98
2024-05-09T09:38:43.885Z,15.00
2024-05-09T09:39:43.863Z,15.05
2024-05-09T09:40:48.281Z,15.13
2024-05-09T09:41:43.862Z,15.13
2024-05-09T09:42:43.838Z,15.19
2024-05-09T09:43:43.828Z,15.22
2024-05-09T09:44:47.752Z,15.22
2024-05-09T09:45:43.987Z,15.23
2024-05-09T09:46:43.733Z,15.25
2024-05-09T09:47:43.853Z,15.30
2024-05-09T09:48:43.872Z,15.34
2024-05-09T09:49:43.809Z,15.40
2024-05-09T09:50:43.713Z,15.43
2024-05-09T09:51:43.878Z,15.48
2024-05-09T09:52:43.679Z,15.55
2024-05-09T09:53:43.757Z,15.55
2024-05-09T09:54:43.667Z,15.60
2024-05-09T09:55:43.643Z,15.62
2024-05-09T09:56:43.658Z,15.62
2024-05-09T09:57:43.772Z,15.70
2024-05-09T09:58:43.625Z,15.70
2024-05-09T09:59:43.625Z,15.74
2024-05-09T10:00:43.855Z,15.80
2024-05-09T10:01:43.722Z,15.85
2024-05-09T10:02:43.628Z,15.91
2024-05-09T10:03:43.728Z,15.93
2024-05-09T10:04:43.722Z,16.04
2024-05-09T10:05:46.325Z,16.07
2024-05-09T10:06:43.575Z,16.14
2024-05-09T10:07:43.519Z,16.14
2024-05-09T10:08:43.529Z,16.16
2024-05-09T10:09:43.540Z,16.17
2024-05-09T10:10:43.881Z,16.22
2024-05-09T10:11:49.101Z,16.25
2024-05-09T10:12:43.490Z,16.29
2024-05-09T10:13:43.470Z,16.30
2024-05-09T10:14:43.484Z,16.30
2024-05-09T10:15:43.499Z,16.33
2024-05-09T10:16:43.422Z,16.36
2024-05-09T10:17:43.533Z,16.32
2024-05-09T10:18:43.782Z,16.30
2024-05-09T10:19:43.535Z,16.27
2024-05-09T10:20:43.429Z,16.23
2024-05-09T10:21:43.428Z,16.25
2024-05-09T10:22:43.380Z,16.18
2024-05-09T10:23:43.365Z,16.16
2024-05-09T10:24:43.398Z,16.13
2024-05-09T10:25:43.395Z,16.11
2024-05-09T10:26:43.336Z,16.14
2024-05-09T10:27:43.330Z,16.17
2024-05-09T10:28:43.334Z,16.14
2024-05-09T10:29:43.265Z,16.13
2024-05-09T10:30:43.454Z,16.17
2024-05-09T10:31:43.558Z,16.17
2024-05-09T10:32:43.384Z,16.14
2024-05-09T10:33:43.394Z,16.16
2024-05-09T10:34:43.377Z,16.22
2024-05-09T10:35:43.239Z,16.17
2024-05-09T10:36:43.360Z,16.25
2024-05-09T10:37:43.211Z,16.25
2024-05-09T10:38:43.296Z,16.27
2024-05-09T10:39:43.256Z,16.30
2024-05-09T10:40:43.254Z,16.36
2024-05-09T10:41:43.168Z,16.37
2024-05-09T10:42:43.227Z,16.36
2024-05-09T10:43:43.145Z,16.37
2024-05-09T10:44:43.174Z,16.36
2024-05-09T10:45:43.160Z,16.41
2024-05-09T10:46:43.104Z,16.44
2024-05-09T10:47:43.282Z,16.45
2024-05-09T10:48:43.334Z,16.50
2024-05-09T10:49:43.100Z,16.52
2024-05-09T10:50:43.109Z,16.52
2024-05-09T10:51:43.101Z,16.55
2024-05-09T10:52:43.092Z,16.63
2024-05-09T10:53:43.149Z,16.66
2024-05-09T10:54:43.084Z,16.70
2024-05-09T10:55:43.030Z,16.75
2024-05-09T10:56:43.040Z,16.78
2024-05-09T10:57:43.056Z,16.81
2024-05-09T10:58:43.127Z,16.85
2024-05-09T10:59:43.061Z,16.81
2024-05-09T11:00:43.144Z,16.82
2024-05-09T11:01:43.094Z,16.88
2024-05-09T11:02:43.254Z,16.96
2024-05-09T11:03:43.226Z,16.99
2024-05-09T11:04:43.077Z,17.07
2024-05-09T11:05:43.260Z,17.17
2024-05-09T11:06:42.967Z,17.22
2024-05-09T11:07:42.880Z,17.30
2024-05-09T11:08:42.895Z,17.36
2024-05-09T11:09:42.931Z,17.45
2024-05-09T11:10:43.041Z,17.49
2024-05-09T11:11:42.867Z,17.63
2024-05-09T11:12:42.873Z,17.68
2024-05-09T11:13:42.801Z,17.63
2024-05-09T11:14:42.778Z,17.68
2024-05-09T11:15:42.864Z,17.74
2024-05-09T11:16:42.829Z,17.79
2024-05-09T11:17:42.858Z,17.79
2024-05-09T11:18:42.878Z,17.77
2024-05-09T11:19:42.835Z,17.77
2024-05-09T11:20:42.859Z,17.77
2024-05-09T11:21:42.940Z,17.79
2024-05-09T11:22:42.742Z,17.71
2024-05-09T11:23:42.826Z,17.73
2024-05-09T11:24:42.719Z,17.70
2024-05-09T11:25:43.063Z,17.65
2024-05-09T11:26:42.704Z,17.66
2024-05-09T11:27:42.856Z,17.58
2024-05-09T11:28:44.846Z,17.54
2024-05-09T11:29:42.641Z,17.53
2024-05-09T11:30:42.707Z,17.55
2024-05-09T11:31:42.753Z,17.62
2024-05-09T11:32:42.771Z,17.70
2024-05-09T11:33:42.760Z,17.80
2024-05-09T11:34:42.797Z,17.74
2024-05-09T11:35:42.597Z,17.83
2024-05-09T11:36:42.706Z,17.87
2024-05-09T11:37:42.567Z,17.96
2024-05-09T11:38:42.681Z,18.05
2024-05-09T11:39:42.603Z,18.13
2024-05-09T11:40:42.638Z,18.20
2024-05-09T11:41:42.616Z,18.28
2024-05-09T11:42:42.587Z,18.34
2024-05-09T11:43:42.561Z,18.41
2024-05-09T11:44:42.552Z,18.54
2024-05-09T11:45:42.583Z,18.59
2024-05-09T11:46:42.457Z,18.64
2024-05-09T11:47:42.630Z,18.54
2024-05-09T11:48:42.611Z,18.50
2024-05-09T11:49:42.593Z,18.49
2024-05-09T11:50:42.471Z,18.41
2024-05-09T11:51:42.534Z,18.36
2024-05-09T11:52:42.453Z,18.31
2024-05-09T11:53:42.437Z,18.25
2024-05-09T11:54:42.728Z,18.20
2024-05-09T11:55:42.415Z,18.17
2024-05-09T11:56:42.359Z,18.21
2024-05-09T11:57:42.421Z,18.29
2024-05-09T11:58:42.334Z,18.36
2024-05-09T11:59:42.355Z,18.49
2024-05-09T12:00:42.456Z,18.53
2024-05-09T12:01:42.473Z,18.62
2024-05-09T12:02:42.332Z,18.74
2024-05-09T12:03:42.590Z,18.82
2024-05-09T12:04:42.617Z,18.91
2024-05-09T12:05:43.510Z,18.94
2024-05-09T12:06:43.945Z,18.99
2024-05-09T12:07:45.687Z,19.05
2024-05-09T12:08:42.238Z,19.09
2024-05-09T12:09:42.253Z,18.96
2024-05-09T12:10:42.466Z,18.91
2024-05-09T12:11:42.252Z,18.83
2024-05-09T12:12:42.348Z,18.83
2024-05-09T12:14:46.113Z,18.75
2024-05-09T12:15:46.975Z,18.68
2024-05-09T12:16:47.015Z,18.68
2024-05-09T12:17:49.591Z,18.62
2024-05-09T12:18:47.074Z,18.57
2024-05-09T12:19:46.944Z,18.54
2024-05-09T12:20:46.968Z,18.47
2024-05-09T12:21:46.934Z,18.46
2024-05-09T12:22:46.859Z,18.53
2024-05-09T12:23:46.878Z,18.68
2024-05-09T12:24:46.821Z,18.75
2024-05-09T12:25:46.828Z,18.84
2024-05-09T12:26:46.813Z,18.96
2024-05-09T12:27:47.044Z,19.06
2024-05-09T12:28:47.054Z,19.13
2024-05-09T12:29:46.952Z,19.24
2024-05-09T12:30:46.932Z,19.30
2024-05-09T12:35:18.713Z,19.43
2024-05-09T12:36:20.405Z,19.32
2024-05-09T12:39:08.388Z,19.25
2024-05-09T12:41:49.014Z,19.12
2024-05-09T12:42:50.004Z,19.09
2024-05-09T12:43:49.897Z,18.99
2024-05-09T12:44:49.862Z,18.96
2024-05-09T12:45:49.966Z,18.90
2024-05-09T12:46:49.854Z,18.83
2024-05-09T12:47:50.089Z,18.83
2024-05-09T12:48:50.023Z,18.76
2024-05-09T12:49:50.188Z,18.76
2024-05-09T12:50:58.127Z,18.68
2024-05-09T12:51:50.000Z,18.74
2024-05-09T12:52:50.308Z,18.83
2024-05-09T12:53:49.755Z,18.89
2024-05-09T12:54:49.872Z,18.99
2024-05-09T12:55:56.686Z,19.13
2024-05-09T12:56:50.004Z,19.24
2024-05-09T12:57:49.855Z,19.34
2024-05-09T12:58:52.841Z,19.40
2024-05-09T12:59:49.719Z,19.35
2024-05-09T13:00:50.916Z,19.39
2024-05-09T13:01:49.810Z,19.47
2024-05-09T13:02:54.878Z,19.47
2024-05-09T13:03:52.518Z,19.47
2024-05-09T13:04:50.536Z,19.43
2024-05-09T13:05:49.857Z,19.46